Time;durP1;ratioP1;P1;durP2;ratioP2;P2;SDS_P1;SDS_P2;PMS_P1;PMS_P2;Temp;Humidity;BMP_temperature;BMP_pressure;BME280_temperature;BME280_humidity;BME280_pressure;Samples;Min_cycle;Max_cycle;Signal;HPM_P1;HPM_P2
2021/09/05 00:00:57;;;;;;;93.90;31.33;;;;;;;;;;5055101;28;20089;-75
2021/09/05 00:03:22;;;;;;;100.22;32.40;;;;;;;;;;5055042;28;20130;-76
2021/09/05 00:05:47;;;;;;;96.28;31.65;;;;;;;;;;5054849;28;20045;-75
2021/09/05 00:08:12;;;;;;;96.70;31.60;;;;;;;;;;5055067;28;20052;-75
2021/09/05 00:10:38;;;;;;;98.20;29.70;;;;;;;;;;5054896;28;20068;-75
2021/09/05 00:13:03;;;;;;;109.85;32.90;;;;;;;;;;5054592;28;20028;-75
2021/09/05 00:15:28;;;;;;;108.10;32.45;;;;;;;;;;5054680;28;20044;-76
2021/09/05 00:17:54;;;;;;;95.28;31.90;;;;;;;;;;5054853;28;20029;-75
2021/09/05 00:20:19;;;;;;;95.57;32.92;;;;;;;;;;5054731;28;20378;-76
2021/09/05 00:22:47;;;;;;;96.55;30.90;;;;;;;;;;5054471;28;20025;-75
2021/09/05 00:25:12;;;;;;;93.93;31.80;;;;;;;;;;5054461;28;20032;-75
2021/09/05 00:27:38;;;;;;;104.10;32.80;;;;;;;;;;5054584;28;20021;-76
2021/09/05 00:30:04;;;;;;;117.28;33.00;;;;;;;;;;5054579;28;20458;-76
2021/09/05 00:32:29;;;;;;;98.18;32.70;;;;;;;;;;5054568;28;20128;-75
2021/09/05 00:34:55;;;;;;;114.93;32.50;;;;;;;;;;5054392;28;20037;-74
2021/09/05 00:37:20;;;;;;;120.43;33.25;;;;;;;;;;5054413;28;20087;-77
2021/09/05 00:39:45;;;;;;;123.80;32.85;;;;;;;;;;5054330;28;20093;-76
2021/09/05 00:42:10;;;;;;;101.00;32.22;;;;;;;;;;5054392;28;20024;-76
2021/09/05 00:44:36;;;;;;;113.13;31.70;;;;;;;;;;5054234;28;20465;-75
2021/09/05 00:47:01;;;;;;;117.38;33.58;;;;;;;;;;5053990;28;20028;-76
2021/09/05 00:49:26;;;;;;;110.05;33.20;;;;;;;;;;5054248;28;20074;-75
2021/09/05 00:51:52;;;;;;;91.03;30.38;;;;;;;;;;5053851;28;20105;-75
2021/09/05 00:54:17;;;;;;;113.47;33.08;;;;;;;;;;5053796;28;20112;-75
2021/09/05 00:56:45;;;;;;;121.35;33.30;;;;;;;;;;5054338;28;20027;-76
2021/09/05 00:59:17;;;;;;;92.70;30.90;;;;;;;;;;5053893;28;20498;-75
2021/09/05 01:01:43;;;;;;;115.13;32.65;;;;;;;;;;5053880;28;20103;-75
2021/09/05 01:04:08;;;;;;;108.43;33.03;;;;;;;;;;5053533;28;20040;-75
2021/09/05 01:06:34;;;;;;;118.68;34.45;;;;;;;;;;5053573;28;20017;-75
2021/09/05 01:09:00;;;;;;;112.68;31.45;;;;;;;;;;5053837;28;20029;-75
2021/09/05 01:11:25;;;;;;;92.13;30.27;;;;;;;;;;5053528;28;20029;-75
2021/09/05 01:13:50;;;;;;;108.35;33.45;;;;;;;;;;5053662;28;20025;-76
2021/09/05 01:16:26;;;;;;;93.07;30.30;;;;;;;;;;5053755;28;20041;-75
2021/09/05 01:18:51;;;;;;;126.43;33.22;;;;;;;;;;5053717;28;20040;-75
2021/09/05 01:21:17;;;;;;;128.38;34.13;;;;;;;;;;5053679;28;20033;-75
2021/09/05 01:23:42;;;;;;;125.68;32.92;;;;;;;;;;5053624;28;20048;-75
2021/09/05 01:26:08;;;;;;;116.57;31.13;;;;;;;;;;5053179;28;20029;-75
2021/09/05 01:28:33;;;;;;;105.78;30.50;;;;;;;;;;5053867;28;20067;-75
2021/09/05 01:30:58;;;;;;;135.68;34.45;;;;;;;;;;5053470;28;20374;-75
2021/09/05 01:33:24;;;;;;;114.70;32.58;;;;;;;;;;5053584;28;20045;-75
2021/09/05 01:35:49;;;;;;;116.35;32.33;;;;;;;;;;5053282;28;20119;-75
2021/09/05 01:38:14;;;;;;;119.35;31.73;;;;;;;;;;5053047;28;20017;-75
2021/09/05 01:40:40;;;;;;;97.18;30.63;;;;;;;;;;5053292;28;20388;-75
2021/09/05 01:43:05;;;;;;;109.40;31.02;;;;;;;;;;5053346;28;20036;-75
2021/09/05 01:45:30;;;;;;;105.43;31.77;;;;;;;;;;5053274;28;20094;-74
2021/09/05 01:47:56;;;;;;;99.63;30.73;;;;;;;;;;5053260;28;20049;-75
2021/09/05 01:50:21;;;;;;;107.68;32.50;;;;;;;;;;5053058;28;20037;-76
2021/09/05 01:52:46;;;;;;;119.90;31.67;;;;;;;;;;5053212;28;20407;-75
2021/09/05 01:55:11;;;;;;;102.93;29.92;;;;;;;;;;5053239;28;20116;-76
2021/09/05 01:57:37;;;;;;;102.53;30.50;;;;;;;;;;5052798;28;20033;-76
2021/09/05 02:00:02;;;;;;;90.15;30.02;;;;;;;;;;5052964;28;20051;-75
2021/09/05 02:02:28;;;;;;;114.43;32.65;;;;;;;;;;5052682;28;20027;-75
2021/09/05 02:04:53;;;;;;;96.72;30.40;;;;;;;;;;5053162;28;20459;-75
2021/09/05 02:07:19;;;;;;;134.25;34.35;;;;;;;;;;5053143;28;20021;-75
2021/09/05 02:09:44;;;;;;;154.63;34.33;;;;;;;;;;5053033;28;20474;-75
2021/09/05 02:12:09;;;;;;;153.85;35.28;;;;;;;;;;5053043;28;20112;-75
2021/09/05 02:14:34;;;;;;;135.88;33.10;;;;;;;;;;5052648;28;20086;-74
2021/09/05 02:17:00;;;;;;;139.23;33.78;;;;;;;;;;5053043;28;20025;-75
2021/09/05 02:19:26;;;;;;;116.97;32.75;;;;;;;;;;5053018;28;20396;-75
2021/09/05 02:21:51;;;;;;;110.25;32.10;;;;;;;;;;5053376;28;20021;-75
2021/09/05 02:24:17;;;;;;;119.63;32.80;;;;;;;;;;5052958;28;20041;-75
2021/09/05 02:26:42;;;;;;;121.35;32.70;;;;;;;;;;5052937;28;20066;-75
2021/09/05 02:29:07;;;;;;;142.02;33.28;;;;;;;;;;5052888;28;20025;-75
2021/09/05 02:31:32;;;;;;;123.45;32.33;;;;;;;;;;5052468;28;20036;-75
2021/09/05 02:33:58;;;;;;;132.77;33.58;;;;;;;;;;5052783;28;20037;-75
2021/09/05 02:36:25;;;;;;;150.05;33.55;;;;;;;;;;5052820;28;20468;-77
2021/09/05 02:38:51;;;;;;;111.43;30.75;;;;;;;;;;5052808;28;20112;-75
2021/09/05 02:41:16;;;;;;;140.30;32.80;;;;;;;;;;5052738;28;20120;-75
2021/09/05 02:43:41;;;;;;;138.82;32.78;;;;;;;;;;5052787;28;20354;-75
2021/09/05 02:46:06;;;;;;;96.20;30.33;;;;;;;;;;5052755;28;20031;-75
2021/09/05 02:48:32;;;;;;;123.38;31.70;;;;;;;;;;5054584;28;20465;-76
2021/09/05 02:50:57;;;;;;;106.35;30.77;;;;;;;;;;5056234;28;20028;-75
2021/09/05 02:53:22;;;;;;;119.40;32.08;;;;;;;;;;5056750;28;20086;-75
2021/09/05 02:55:47;;;;;;;97.68;31.02;;;;;;;;;;5056310;28;20048;-75
2021/09/05 02:58:13;;;;;;;122.22;32.22;;;;;;;;;;5056160;28;20505;-76
2021/09/05 03:00:38;;;;;;;119.15;30.17;;;;;;;;;;5055420;28;20020;-75
2021/09/05 03:03:03;;;;;;;101.72;30.25;;;;;;;;;;5056291;28;20025;-75
2021/09/05 03:05:28;;;;;;;102.13;28.63;;;;;;;;;;5055740;28;20450;-75
2021/09/05 03:07:54;;;;;;;109.30;31.08;;;;;;;;;;5056386;28;20104;-75
2021/09/05 03:10:19;;;;;;;139.25;34.22;;;;;;;;;;5056144;28;20039;-75
2021/09/05 03:12:44;;;;;;;116.07;31.27;;;;;;;;;;5055993;28;20382;-75
2021/09/05 03:15:09;;;;;;;98.45;29.55;;;;;;;;;;5055940;28;20040;-75
2021/09/05 03:17:35;;;;;;;130.40;31.77;;;;;;;;;;5055934;28;20044;-75
2021/09/05 03:20:00;;;;;;;117.25;30.75;;;;;;;;;;5055927;28;20119;-76
2021/09/05 03:22:25;;;;;;;110.65;30.35;;;;;;;;;;5056227;28;20041;-76
2021/09/05 03:24:51;;;;;;;95.93;29.27;;;;;;;;;;5055880;28;20448;-76
2021/09/05 03:27:16;;;;;;;117.97;31.38;;;;;;;;;;5055902;28;20020;-75
2021/09/05 03:29:41;;;;;;;109.88;30.92;;;;;;;;;;5055719;28;20017;-75
2021/09/05 03:32:07;;;;;;;120.93;32.10;;;;;;;;;;5055250;28;20386;-75
2021/09/05 03:34:32;;;;;;;123.60;32.13;;;;;;;;;;5055886;28;20053;-75
2021/09/05 03:36:57;;;;;;;116.55;30.67;;;;;;;;;;5055345;28;20031;-75
2021/09/05 03:39:22;;;;;;;107.97;29.83;;;;;;;;;;5055552;28;20029;-75
2021/09/05 03:41:48;;;;;;;121.93;30.75;;;;;;;;;;5055472;28;20025;-75
2021/09/05 03:44:13;;;;;;;122.78;31.70;;;;;;;;;;5055556;28;20037;-75
2021/09/05 03:46:38;;;;;;;107.03;29.60;;;;;;;;;;5055373;28;20029;-75
2021/09/05 03:49:04;;;;;;;151.27;32.58;;;;;;;;;;5055417;28;20021;-75
2021/09/05 03:51:29;;;;;;;100.32;27.88;;;;;;;;;;5055334;28;20032;-75
2021/09/05 03:53:54;;;;;;;106.03;29.85;;;;;;;;;;5055334;28;20120;-75
2021/09/05 03:56:19;;;;;;;141.82;32.60;;;;;;;;;;5055347;28;20361;-75
2021/09/05 03:58:45;;;;;;;105.65;29.85;;;;;;;;;;5055211;28;20033;-75
2021/09/05 04:01:10;;;;;;;114.18;30.15;;;;;;;;;;5054651;28;20068;-75
2021/09/05 04:03:35;;;;;;;130.55;31.75;;;;;;;;;;5055118;28;20450;-75
2021/09/05 04:06:02;;;;;;;119.95;31.50;;;;;;;;;;5055044;28;20051;-75
2021/09/05 04:08:45;;;;;;;110.18;31.05;;;;;;;;;;5054987;28;20036;-75
2021/09/05 04:11:11;;;;;;;117.30;30.67;;;;;;;;;;5054640;28;20507;-76
2021/09/05 04:13:36;;;;;;;135.20;32.47;;;;;;;;;;5054466;28;20029;-75
2021/09/05 04:16:01;;;;;;;134.70;32.38;;;;;;;;;;5054865;28;20043;-75
2021/09/05 04:18:26;;;;;;;122.13;31.75;;;;;;;;;;5054867;28;20063;-76
2021/09/05 04:20:52;;;;;;;125.63;32.33;;;;;;;;;;5054906;28;20071;-77
2021/09/05 04:23:17;;;;;;;108.22;30.55;;;;;;;;;;5054778;28;20067;-75
2021/09/05 04:25:42;;;;;;;103.65;30.40;;;;;;;;;;5054867;28;20021;-75
2021/09/05 04:28:08;;;;;;;128.15;31.83;;;;;;;;;;5054655;28;20373;-75
2021/09/05 04:30:33;;;;;;;144.50;32.63;;;;;;;;;;5054542;28;20024;-75
2021/09/05 04:32:58;;;;;;;186.35;36.45;;;;;;;;;;5054236;28;20056;-75
2021/09/05 04:35:23;;;;;;;131.55;31.92;;;;;;;;;;5054517;28;20370;-75
2021/09/05 04:37:49;;;;;;;98.22;29.77;;;;;;;;;;5054532;28;20067;-75
2021/09/05 04:40:14;;;;;;;179.10;32.70;;;;;;;;;;5054392;28;20100;-76
2021/09/05 04:42:39;;;;;;;102.05;29.48;;;;;;;;;;5054003;28;20043;-75
2021/09/05 04:45:05;;;;;;;112.93;29.08;;;;;;;;;;5052815;28;20023;-75
2021/09/05 04:47:30;;;;;;;144.52;30.83;;;;;;;;;;5054064;28;20047;-75
2021/09/05 04:49:55;;;;;;;112.13;29.90;;;;;;;;;;5054218;28;20037;-75
2021/09/05 04:52:21;;;;;;;151.30;32.05;;;;;;;;;;5054237;28;20020;-75
2021/09/05 04:54:46;;;;;;;101.70;29.95;;;;;;;;;;5054344;28;20494;-75
2021/09/05 04:57:11;;;;;;;147.20;32.55;;;;;;;;;;5054187;28;20032;-75
2021/09/05 04:59:37;;;;;;;151.95;33.70;;;;;;;;;;5054040;28;20021;-74
2021/09/05 05:02:02;;;;;;;111.07;29.63;;;;;;;;;;5054069;28;20442;-75
2021/09/05 05:04:27;;;;;;;117.60;29.80;;;;;;;;;;5053987;28;20429;-76
2021/09/05 05:06:53;;;;;;;128.68;29.02;;;;;;;;;;5053976;28;20025;-76
2021/09/05 05:09:18;;;;;;;102.28;27.98;;;;;;;;;;5053987;28;20024;-75
2021/09/05 05:11:43;;;;;;;122.35;31.55;;;;;;;;;;5053097;28;20037;-74
2021/09/05 05:14:09;;;;;;;114.13;29.90;;;;;;;;;;5053676;28;20086;-75
2021/09/05 05:16:34;;;;;;;91.53;29.45;;;;;;;;;;5053853;28;20480;-75
2021/09/05 05:18:59;;;;;;;108.40;30.00;;;;;;;;;;5053705;28;20039;-75
2021/09/05 05:21:28;;;;;;;133.65;32.97;;;;;;;;;;5053733;28;20443;-75
2021/09/05 05:23:54;;;;;;;147.23;32.53;;;;;;;;;;5053748;28;20023;-75
2021/09/05 05:26:19;;;;;;;151.43;32.35;;;;;;;;;;5053682;28;20028;-75
2021/09/05 05:28:44;;;;;;;139.98;31.63;;;;;;;;;;5053604;28;20027;-75
2021/09/05 05:31:09;;;;;;;127.80;30.88;;;;;;;;;;5053518;28;20028;-75
2021/09/05 05:33:35;;;;;;;107.78;28.98;;;;;;;;;;5053115;28;20421;-75
2021/09/05 05:36:00;;;;;;;122.18;30.38;;;;;;;;;;5053375;28;20462;-75
2021/09/05 05:38:25;;;;;;;149.35;30.98;;;;;;;;;;5052198;28;20027;-75
2021/09/05 05:40:51;;;;;;;154.07;32.15;;;;;;;;;;5053327;28;20039;-75
2021/09/05 05:43:16;;;;;;;167.63;33.13;;;;;;;;;;5053359;28;20017;-75
2021/09/05 05:45:41;;;;;;;134.82;32.03;;;;;;;;;;5053448;28;20025;-75
2021/09/05 05:48:07;;;;;;;129.93;30.65;;;;;;;;;;5053338;28;20040;-75
2021/09/05 05:50:32;;;;;;;144.50;31.50;;;;;;;;;;5053490;28;20017;-75
2021/09/05 05:52:58;;;;;;;144.48;31.27;;;;;;;;;;5053124;28;20036;-74
2021/09/05 05:55:23;;;;;;;107.25;28.63;;;;;;;;;;5053167;28;20048;-75
2021/09/05 05:57:48;;;;;;;102.32;28.75;;;;;;;;;;5053259;28;20464;-75
2021/09/05 06:00:14;;;;;;;104.78;28.60;;;;;;;;;;5053249;28;20048;-75
2021/09/05 06:02:39;;;;;;;134.93;29.80;;;;;;;;;;5053189;28;20033;-75
2021/09/05 06:05:05;;;;;;;108.65;28.52;;;;;;;;;;5052934;28;20017;-75
2021/09/05 06:07:30;;;;;;;97.82;29.15;;;;;;;;;;5053168;28;20079;-75
2021/09/05 06:09:55;;;;;;;139.85;32.20;;;;;;;;;;5053143;28;20083;-75
2021/09/05 06:12:21;;;;;;;179.60;33.97;;;;;;;;;;5053091;28;20094;-75
2021/09/05 06:14:46;;;;;;;121.25;31.55;;;;;;;;;;5053010;28;20033;-75
2021/09/05 06:17:11;;;;;;;126.70;32.22;;;;;;;;;;5053031;28;20033;-75
2021/09/05 06:19:37;;;;;;;121.60;28.95;;;;;;;;;;5052690;28;20063;-75
2021/09/05 06:22:02;;;;;;;104.05;28.25;;;;;;;;;;5053135;28;20021;-75
2021/09/05 06:24:27;;;;;;;108.97;29.23;;;;;;;;;;5056536;28;20033;-75
2021/09/05 06:26:53;;;;;;;115.03;31.08;;;;;;;;;;5056957;28;20021;-75
2021/09/05 06:29:18;;;;;;;114.10;30.20;;;;;;;;;;5056902;28;20120;-75
2021/09/05 06:31:43;;;;;;;104.07;30.13;;;;;;;;;;5056746;28;20033;-75
2021/09/05 06:34:08;;;;;;;118.45;32.03;;;;;;;;;;5056413;28;20025;-75
2021/09/05 06:36:34;;;;;;;104.25;29.38;;;;;;;;;;5056820;28;20083;-75
2021/09/05 06:38:59;;;;;;;89.40;28.70;;;;;;;;;;5056619;28;20060;-76
2021/09/05 06:41:24;;;;;;;126.57;32.70;;;;;;;;;;5056667;28;20075;-75
2021/09/05 06:43:49;;;;;;;116.10;30.98;;;;;;;;;;5056711;28;20074;-75
2021/09/05 06:46:15;;;;;;;111.78;31.30;;;;;;;;;;5056605;28;20059;-76
2021/09/05 06:48:41;;;;;;;109.57;30.25;;;;;;;;;;5056538;28;20071;-75
2021/09/05 06:51:06;;;;;;;161.68;34.17;;;;;;;;;;5056619;28;20017;-75
2021/09/05 06:53:32;;;;;;;119.78;32.15;;;;;;;;;;5056420;28;20567;-75
2021/09/05 06:55:57;;;;;;;82.60;27.85;;;;;;;;;;5055174;28;20028;-76
2021/09/05 06:58:22;;;;;;;82.25;28.55;;;;;;;;;;5056412;28;20449;-75
2021/09/05 07:00:47;;;;;;;95.75;28.88;;;;;;;;;;5056069;28;20108;-75
2021/09/05 07:03:13;;;;;;;110.97;30.98;;;;;;;;;;5056460;28;20020;-77
2021/09/05 07:05:38;;;;;;;137.00;33.60;;;;;;;;;;5056342;28;20032;-76
2021/09/05 07:08:04;;;;;;;91.50;29.63;;;;;;;;;;5056311;28;20033;-75
2021/09/05 07:10:29;;;;;;;89.60;30.27;;;;;;;;;;5054917;28;20381;-76
2021/09/05 07:12:54;;;;;;;101.20;30.42;;;;;;;;;;5056276;28;20450;-75
2021/09/05 07:15:20;;;;;;;103.30;30.60;;;;;;;;;;5055948;28;20037;-75
2021/09/05 07:17:45;;;;;;;104.75;29.67;;;;;;;;;;5055691;28;20032;-75
2021/09/05 07:20:10;;;;;;;97.63;29.20;;;;;;;;;;5056028;28;20017;-76
2021/09/05 07:22:36;;;;;;;72.97;25.92;;;;;;;;;;5055900;28;20465;-75
2021/09/05 07:25:02;;;;;;;74.22;27.85;;;;;;;;;;5055645;28;20017;-75
2021/09/05 07:27:28;;;;;;;129.98;32.05;;;;;;;;;;5055880;28;20029;-75
2021/09/05 07:29:53;;;;;;;126.45;32.72;;;;;;;;;;5056117;28;20040;-75
2021/09/05 07:32:19;;;;;;;90.95;28.92;;;;;;;;;;5055635;28;20063;-75
2021/09/05 07:34:45;;;;;;;90.40;28.70;;;;;;;;;;5054734;28;20029;-75
2021/09/05 07:37:11;;;;;;;72.85;25.95;;;;;;;;;;5055399;28;20541;-75
2021/09/05 07:39:36;;;;;;;80.97;27.58;;;;;;;;;;5055490;28;20104;-76
2021/09/05 07:42:01;;;;;;;95.60;29.25;;;;;;;;;;5055713;28;20379;-76
2021/09/05 07:44:26;;;;;;;92.40;28.85;;;;;;;;;;5055611;28;20029;-76
2021/09/05 07:46:52;;;;;;;87.07;27.52;;;;;;;;;;5055523;28;20358;-75
2021/09/05 07:49:17;;;;;;;78.78;28.00;;;;;;;;;;5055450;28;20032;-75
2021/09/05 07:51:43;;;;;;;75.85;25.58;;;;;;;;;;5055346;28;20465;-76
2021/09/05 07:54:08;;;;;;;56.58;22.52;;;;;;;;;;5055291;28;20032;-75
2021/09/05 07:56:34;;;;;;;83.18;27.48;;;;;;;;;;5055368;28;20405;-76
2021/09/05 07:58:59;;;;;;;62.22;24.80;;;;;;;;;;5055296;28;20385;-76
2021/09/05 08:01:24;;;;;;;59.90;23.92;;;;;;;;;;5055218;28;20096;-75
2021/09/05 08:03:51;;;;;;;55.28;23.83;;;;;;;;;;5055231;28;20112;-75
2021/09/05 08:06:16;;;;;;;51.17;21.58;;;;;;;;;;5055045;28;20079;-75
2021/09/05 08:08:41;;;;;;;40.33;19.75;;;;;;;;;;5055155;28;20021;-76
2021/09/05 08:11:07;;;;;;;65.30;24.63;;;;;;;;;;5054823;28;20028;-75
2021/09/05 08:13:32;;;;;;;57.00;24.10;;;;;;;;;;5054969;28;20061;-75
2021/09/05 08:16:00;;;;;;;68.38;24.33;;;;;;;;;;5054564;28;20410;-76
2021/09/05 08:18:27;;;;;;;69.95;24.15;;;;;;;;;;5054927;28;20032;-75
2021/09/05 08:20:52;;;;;;;53.40;23.73;;;;;;;;;;5054852;28;20385;-75
2021/09/05 08:23:17;;;;;;;56.10;23.30;;;;;;;;;;5054767;28;20025;-75
2021/09/05 08:25:43;;;;;;;58.40;24.35;;;;;;;;;;5054847;28;20174;-74
2021/09/05 08:28:10;;;;;;;53.05;21.50;;;;;;;;;;5054706;28;20044;-75
2021/09/05 08:30:35;;;;;;;52.22;22.80;;;;;;;;;;5054633;28;20158;-76
2021/09/05 08:33:01;;;;;;;57.03;23.08;;;;;;;;;;5054295;28;20090;-75
2021/09/05 08:35:26;;;;;;;47.83;21.30;;;;;;;;;;5054483;28;20481;-76
2021/09/05 08:37:51;;;;;;;44.28;20.02;;;;;;;;;;5054244;28;20040;-75
2021/09/05 08:40:17;;;;;;;39.45;18.88;;;;;;;;;;5054379;28;20025;-75
2021/09/05 08:42:43;;;;;;;49.35;20.50;;;;;;;;;;5054094;28;20029;-76
2021/09/05 08:45:09;;;;;;;51.53;20.70;;;;;;;;;;5054465;28;20100;-76
2021/09/05 08:47:35;;;;;;;48.33;20.85;;;;;;;;;;5054187;28;20060;-77
2021/09/05 08:50:01;;;;;;;47.65;21.30;;;;;;;;;;5054296;28;20036;-76
2021/09/05 08:52:26;;;;;;;49.88;21.48;;;;;;;;;;5054128;28;20361;-76
2021/09/05 08:54:51;;;;;;;38.38;19.75;;;;;;;;;;5052770;28;20037;-76
2021/09/05 08:57:17;;;;;;;39.25;19.20;;;;;;;;;;5054085;28;20036;-76
2021/09/05 08:59:42;;;;;;;43.88;19.92;;;;;;;;;;5054192;28;20029;-76
2021/09/05 09:02:07;;;;;;;43.72;20.75;;;;;;;;;;5053844;28;20032;-76
2021/09/05 09:04:37;;;;;;;44.72;22.02;;;;;;;;;;5053952;28;20033;-76
2021/09/05 09:07:13;;;;;;;48.53;21.42;;;;;;;;;;5053919;28;20025;-76
2021/09/05 09:10:05;;;;;;;42.13;20.73;;;;;;;;;;5053909;28;20025;-76
2021/09/05 09:12:39;;;;;;;39.38;19.80;;;;;;;;;;5052320;28;20126;-76
2021/09/05 09:15:24;;;;;;;45.90;20.83;;;;;;;;;;5053741;28;20102;-75
2021/09/05 09:17:54;;;;;;;42.95;20.27;;;;;;;;;;5053793;28;20123;-75
2021/09/05 09:20:49;;;;;;;42.90;19.77;;;;;;;;;;5053673;28;20119;-76
2021/09/05 09:23:14;;;;;;;43.78;21.00;;;;;;;;;;5048768;28;20369;-76
2021/09/05 09:25:50;;;;;;;42.53;20.08;;;;;;;;;;5053625;28;20029;-76
2021/09/05 09:28:24;;;;;;;40.00;20.02;;;;;;;;;;5053653;28;20028;-75
2021/09/05 09:30:49;;;;;;;35.90;20.10;;;;;;;;;;5053562;28;20033;-76
2021/09/05 09:33:19;;;;;;;36.05;18.58;;;;;;;;;;5053233;28;20115;-75
2021/09/05 09:35:49;;;;;;;36.75;20.77;;;;;;;;;;5053468;28;20124;-76
2021/09/05 09:38:15;;;;;;;39.38;20.58;;;;;;;;;;5053579;28;20033;-76
2021/09/05 09:40:41;;;;;;;43.80;20.20;;;;;;;;;;5053427;28;20037;-76
2021/09/05 09:43:22;;;;;;;40.92;20.70;;;;;;;;;;5053072;28;20032;-76
2021/09/05 09:45:48;;;;;;;33.17;18.25;;;;;;;;;;5053383;28;20028;-76
2021/09/05 09:48:23;;;;;;;39.42;20.40;;;;;;;;;;5053347;28;20025;-76
2021/09/05 09:50:48;;;;;;;;;;;;;;;;;;5053733;28;20033;-75
2021/09/05 09:53:14;;;;;;;36.83;18.33;;;;;;;;;;5053311;28;20250;-76
2021/09/05 09:55:39;;;;;;;37.80;19.98;;;;;;;;;;5053100;28;20101;-76
2021/09/05 09:58:05;;;;;;;35.22;19.15;;;;;;;;;;5052450;28;20025;-76
2021/09/05 10:00:31;;;;;;;37.42;18.77;;;;;;;;;;5053202;28;20025;-76
2021/09/05 10:02:57;;;;;;;41.85;19.77;;;;;;;;;;5053190;28;20047;-76
2021/09/05 10:05:22;;;;;;;31.13;18.60;;;;;;;;;;5052799;28;20025;-76
2021/09/05 10:07:48;;;;;;;37.67;19.33;;;;;;;;;;5053227;28;20021;-76
2021/09/05 10:10:14;;;;;;;45.42;19.80;;;;;;;;;;5053119;28;20033;-76
2021/09/05 10:12:40;;;;;;;34.05;19.13;;;;;;;;;;5053080;28;20032;-76
2021/09/05 10:15:07;;;;;;;36.92;20.85;;;;;;;;;;5052948;28;20036;-76
2021/09/05 10:17:32;;;;;;;34.60;20.48;;;;;;;;;;5052702;28;20044;-76
2021/09/05 10:20:00;;;;;;;39.35;21.50;;;;;;;;;;5052700;28;20058;-76
2021/09/05 10:22:30;;;;;;;39.92;21.27;;;;;;;;;;5053025;28;20450;-76
2021/09/05 10:24:59;;;;;;;35.72;20.48;;;;;;;;;;5053341;28;20029;-76
2021/09/05 10:27:31;;;;;;;34.67;20.02;;;;;;;;;;5052969;28;20029;-76
2021/09/05 10:30:09;;;;;;;32.72;19.33;;;;;;;;;;5052953;28;20063;-76
2021/09/05 10:32:51;;;;;;;34.67;18.92;;;;;;;;;;5052916;28;20048;-76
2021/09/05 10:35:22;;;;;;;33.80;19.77;;;;;;;;;;5052727;28;20067;-76
2021/09/05 10:37:48;;;;;;;37.50;20.50;;;;;;;;;;5052826;28;20033;-76
2021/09/05 10:40:13;;;;;;;31.45;19.15;;;;;;;;;;5052830;28;20017;-76
2021/09/05 10:42:52;;;;;;;32.22;19.58;;;;;;;;;;5052819;28;20016;-77
2021/09/05 10:45:17;;;;;;;37.83;21.13;;;;;;;;;;5052710;28;20032;-77
2021/09/05 10:47:43;;;;;;;33.42;19.17;;;;;;;;;;5052501;28;20013;-76
2021/09/05 10:50:28;;;;;;;30.80;18.48;;;;;;;;;;5052750;28;20037;-76
2021/09/05 10:52:53;;;;;;;34.67;19.75;;;;;;;;;;5052657;28;20029;-76
2021/09/05 10:55:19;;;;;;;36.10;19.70;;;;;;;;;;5052252;28;20090;-76
2021/09/05 10:57:44;;;;;;;34.90;20.00;;;;;;;;;;5052727;28;20017;-76
2021/09/05 11:00:10;;;;;;;33.05;19.60;;;;;;;;;;5052784;28;20031;-76
2021/09/05 11:02:53;;;;;;;36.13;21.10;;;;;;;;;;5052322;28;20040;-76
2021/09/05 11:05:19;;;;;;;34.97;21.08;;;;;;;;;;5052434;28;20029;-77
2021/09/05 11:07:45;;;;;;;34.22;20.38;;;;;;;;;;5052951;28;20037;-76
2021/09/05 11:10:10;;;;;;;35.70;20.65;;;;;;;;;;5053803;28;20413;-76
2021/09/05 11:12:40;;;;;;;33.00;19.83;;;;;;;;;;5056185;28;20025;-76
2021/09/05 11:15:13;;;;;;;38.00;19.10;;;;;;;;;;5056094;28;20041;-77
2021/09/05 11:17:38;;;;;;;35.83;20.70;;;;;;;;;;5055865;28;20477;-76
2021/09/05 11:20:05;;;;;;;32.78;19.80;;;;;;;;;;5055975;28;20074;-76
2021/09/05 11:22:39;;;;;;;40.25;22.75;;;;;;;;;;5056029;28;20021;-76
2021/09/05 11:25:15;;;;;;;35.43;21.13;;;;;;;;;;5056229;28;20389;-77
2021/09/05 11:27:50;;;;;;;36.35;21.90;;;;;;;;;;5054712;28;20076;-77
2021/09/05 11:30:15;;;;;;;41.00;22.35;;;;;;;;;;5055827;28;20033;-76
2021/09/05 11:32:41;;;;;;;36.60;21.58;;;;;;;;;;5055733;28;20052;-77
2021/09/05 11:35:07;;;;;;;37.47;21.48;;;;;;;;;;5055595;28;20041;-77
2021/09/05 11:37:33;;;;;;;39.47;21.52;;;;;;;;;;5055677;28;20032;-76
2021/09/05 11:40:11;;;;;;;33.83;21.15;;;;;;;;;;5055789;28;20378;-76
2021/09/05 11:42:36;;;;;;;35.78;20.83;;;;;;;;;;5055532;28;20040;-76
2021/09/05 11:45:06;;;;;;;33.90;21.27;;;;;;;;;;5055517;28;20025;-76
2021/09/05 11:47:32;;;;;;;36.13;19.75;;;;;;;;;;5055504;28;20021;-76
2021/09/05 11:49:57;;;;;;;34.97;22.15;;;;;;;;;;5055573;28;20021;-77
2021/09/05 11:52:23;;;;;;;36.88;21.10;;;;;;;;;;5055252;28;20116;-76
2021/09/05 11:54:48;;;;;;;41.47;22.10;;;;;;;;;;5055229;28;20029;-77
2021/09/05 11:57:14;;;;;;;37.92;21.38;;;;;;;;;;5055326;28;20392;-77
2021/09/05 11:59:39;;;;;;;33.17;19.55;;;;;;;;;;5055098;28;20532;-76
2021/09/05 12:02:04;;;;;;;36.28;21.15;;;;;;;;;;5055219;28;20021;-76
2021/09/05 12:04:30;;;;;;;36.25;21.00;;;;;;;;;;5055165;28;20029;-76
2021/09/05 12:06:55;;;;;;;33.67;20.45;;;;;;;;;;5055154;28;20632;-76
2021/09/05 12:09:31;;;;;;;33.78;20.60;;;;;;;;;;5054975;28;20029;-76
2021/09/05 12:11:56;;;;;;;36.63;21.35;;;;;;;;;;5054028;28;20392;-76
2021/09/05 12:14:32;;;;;;;38.30;20.13;;;;;;;;;;5054541;28;20025;-76
2021/09/05 12:16:57;;;;;;;39.58;20.38;;;;;;;;;;5054903;28;20104;-76
2021/09/05 12:19:23;;;;;;;39.50;21.00;;;;;;;;;;5054810;28;20063;-76
2021/09/05 12:21:55;;;;;;;37.33;21.10;;;;;;;;;;5054453;28;20024;-76
2021/09/05 12:24:20;;;;;;;32.67;20.55;;;;;;;;;;5054736;28;20112;-76
2021/09/05 12:26:46;;;;;;;35.92;20.75;;;;;;;;;;5054782;28;20112;-76
2021/09/05 12:29:12;;;;;;;32.72;19.80;;;;;;;;;;5054697;28;20044;-76
2021/09/05 12:31:45;;;;;;;34.35;19.90;;;;;;;;;;5054439;28;20115;-76
2021/09/05 12:34:31;;;;;;;31.63;19.23;;;;;;;;;;5054957;28;20033;-76
2021/09/05 12:36:56;;;;;;;28.20;18.08;;;;;;;;;;5054563;28;20075;-76
2021/09/05 12:39:22;;;;;;;31.67;19.08;;;;;;;;;;5054689;28;20053;-76
2021/09/05 12:41:47;;;;;;;29.58;17.70;;;;;;;;;;5054421;28;20024;-76
2021/09/05 12:44:12;;;;;;;30.73;17.98;;;;;;;;;;5054099;28;20111;-76
2021/09/05 12:46:42;;;;;;;31.50;18.00;;;;;;;;;;5054326;28;20081;-76
2021/09/05 12:49:09;;;;;;;25.83;17.35;;;;;;;;;;5054601;28;20454;-76
2021/09/05 12:51:45;;;;;;;23.52;14.73;;;;;;;;;;5053913;28;20462;-76
2021/09/05 12:54:10;;;;;;;30.25;17.02;;;;;;;;;;5054157;28;20029;-77
2021/09/05 12:56:36;;;;;;;26.15;16.20;;;;;;;;;;5054406;28;20039;-76
2021/09/05 12:59:01;;;;;;;23.08;14.73;;;;;;;;;;5054126;28;20033;-76
2021/09/05 13:01:28;;;;;;;22.65;14.77;;;;;;;;;;5054027;28;20103;-76
2021/09/05 13:03:54;;;;;;;27.60;16.88;;;;;;;;;;5053764;28;20449;-76
2021/09/05 13:06:19;;;;;;;24.73;15.52;;;;;;;;;;5053981;28;20031;-77
2021/09/05 13:08:45;;;;;;;27.42;16.80;;;;;;;;;;5054002;28;20350;-77
2021/09/05 13:11:14;;;;;;;24.73;15.65;;;;;;;;;;5054232;28;20104;-76
2021/09/05 13:13:40;;;;;;;24.25;15.63;;;;;;;;;;5053793;28;20039;-76
2021/09/05 13:16:05;;;;;;;29.20;16.30;;;;;;;;;;5053752;28;20025;-76
2021/09/05 13:18:30;;;;;;;26.23;15.82;;;;;;;;;;5053771;28;20033;-76
2021/09/05 13:20:55;;;;;;;31.33;16.00;;;;;;;;;;5053760;28;20043;-76
2021/09/05 13:23:21;;;;;;;28.73;15.18;;;;;;;;;;5052536;28;20021;-77
2021/09/05 13:25:46;;;;;;;27.60;16.27;;;;;;;;;;5053945;28;20457;-76
2021/09/05 13:28:11;;;;;;;25.70;15.65;;;;;;;;;;5053763;28;20039;-76
2021/09/05 13:30:36;;;;;;;24.48;16.02;;;;;;;;;;5053597;28;20373;-76
2021/09/05 13:33:02;;;;;;;23.05;15.48;;;;;;;;;;5052503;28;20045;-76
2021/09/05 13:35:27;;;;;;;25.63;15.73;;;;;;;;;;5053419;28;20461;-76
2021/09/05 13:37:53;;;;;;;20.98;14.80;;;;;;;;;;5053835;28;20021;-76
2021/09/05 13:40:18;;;;;;;23.67;14.48;;;;;;;;;;5053284;28;20377;-77
2021/09/05 13:42:44;;;;;;;22.42;14.70;;;;;;;;;;5053549;28;20455;-76
2021/09/05 13:45:09;;;;;;;23.75;15.63;;;;;;;;;;5053104;28;20032;-77
2021/09/05 13:47:34;;;;;;;21.60;14.65;;;;;;;;;;5053069;28;20033;-76
2021/09/05 13:50:02;;;;;;;26.17;16.20;;;;;;;;;;5053719;28;20118;-76
2021/09/05 13:52:27;;;;;;;27.15;16.70;;;;;;;;;;5053251;28;20364;-76
2021/09/05 13:54:52;;;;;;;28.60;16.15;;;;;;;;;;5053251;28;20041;-76
2021/09/05 13:57:18;;;;;;;26.08;14.93;;;;;;;;;;5053171;28;20470;-77
2021/09/05 13:59:43;;;;;;;31.67;15.38;;;;;;;;;;5053368;28;20373;-77
2021/09/05 14:02:09;;;;;;;26.30;15.88;;;;;;;;;;5053241;28;20428;-77
2021/09/05 14:04:34;;;;;;;24.30;15.05;;;;;;;;;;5053149;28;20536;-76
2021/09/05 14:07:00;;;;;;;21.55;14.18;;;;;;;;;;5053185;28;20021;-76